Montevideo, Uruguay

7:08 PM UYT en Agosto 27, 2016 (GMT -0300)
OKT - Latu | | Change Station

Alt 36 ft 34.88 °S, 56.07 °W | Updated 27 seconds ago

Rain
Lluvia
49.8 ° F
Sensación térmica 47 ° F
N
7.4
Viento Variable Viento desde Sur
Gusts 9.8 mph

Hoy
Alta -- | Baja -- ° F
--% Posibilidad de precipitaciones
Ayer
Alta -- | Baja -- ° F
Precip. -- pul
Presión 29.98 pul
Visibilidad 4.3 Millas
Nubes Muy nublado 2600 ft
Nublado 7000 ft
Vientos helados 47 ° F
Punto de rocío 47 ° F
Humedad 89%
Precipitaciones 3.65 pul
Espesor de la nieve No disponible.
7:08 AM 6:22 PM
Creciente menguante, 21% visible
METAR SUMU 272200Z 14013G23KT 7000 RA BKN026 OVC070 09/06 Q1015 NOSIG
Presión 29.98 pul
Visibilidad 4.3 Millas
Nubes Muy nublado 2600 ft
Nublado 7000 ft
Vientos helados 47 ° F
Punto de rocío 47 ° F
Humedad 89%
Precipitaciones 3.65 pul
Espesor de la nieve No disponible.
7:08 AM 6:22 PM
Creciente menguante, 21% visible
METAR SUMU 272200Z 14013G23KT 7000 RA BKN026 OVC070 09/06 Q1015 NOSIG

10-Day Weather Forecast

No radar image for this location.
×

Almanac

Astronomía

Aug. 27, 2016 Salida Puesta
Hora real
Crepúsculo civil
Crepúsculo náutico
Crepúsculo astronómico
Luna
Horas de luz
Horas de luz
Tomorrow will be .
, % of the Moon is Illuminated

Extremos de hoy

Máximos del país Bajas del país

Community

WunderPhotos

Upload Photos

1,935,455 ¡fotos cargadas!

WunderBlog® & News

Nearby

Calidad del aire

  Calidad del aire Índice AQ Contaminante
Not available.

Grosos de nieve

Estación Profundido Altura

Actividad de terremotos

Ciudad Distance Mag. Tiempo y dato
Magnitud mínima muestra es 2,5.

Temperaturas de aguas costeras

Lugar Temperatura

Stations

Estaciones meteorológicas cercanas

Ubicación de la estación Temp. Vientos helados Punto de rocío Humedad Viento Precip. Alt Actualizado Tipo